Alm Zurich — V7NG2 — position and weather

sailwx.info

Track history (hours):
 
Tides and Currents Weather Stations Pressure Air Temp Water Temp Dewpoint Dewpoint Depression Visibility Wind Speed Wind Dir Waves Ship Positions

Alm Zurich

Last reported at 2017-Jun-15 23:15 UTC. Time now 2017-Jun-26 21:05 UTC.
Position N 31°06' E 124°28'.
Warning: this ship's position is 10 days out of date.

Length 294 m; draft 11.1 m.

Type: Ship (hazmat cat A). MMSI: 538002956.

Date/timePositionNaut miles runAvg speedWind from/ knotsBaromVisibWave heightAir tempDewpointWater temp
2017-Jun-15 23:15N 31°06' E 124°28'519.8
2017-Jun-15 23:00N 31°03' E 124°24'3519.9
2017-Jun-15 21:14N 30°40' E 123°52'520.2
2017-Jun-15 21:00N 30°37' E 123°48'  
2017-Jun-11 23:46N 37°13' E 122°58'619.3
2017-Jun-11 23:27N 37°19' E 122°58'919.2
2017-Jun-11 23:00N 37°28' E 122°58'918.7
2017-Jun-11 22:30N 37°36' E 122°53'1019.9
2017-Jun-11 22:00N 37°42' E 122°43'1020.5
2017-Jun-11 21:30N 37°48' E 122°32'1121.1
2017-Jun-11 21:00N 37°54' E 122°21'1121.2
2017-Jun-11 20:30N 37°60' E 122°10'1121.4
2017-Jun-11 20:00N 38°04' E 121°57'1121.3
2017-Jun-11 19:30N 38°09' E 121°45'1121.0
2017-Jun-11 18:59N 38°15' E 121°33'1020.9
2017-Jun-11 18:30N 38°20' E 121°23'1121.0
2017-Jun-11 18:00N 38°26' E 121°11'1020.3
2017-Jun-11 17:30N 38°31' E 121°00'1220.2
2017-Jun-11 16:55N 38°34' E 120°46'1120.4
2017-Jun-11 16:24N 38°36' E 120°32'820.4
2017-Jun-11 16:00N 38°37' E 120°22'1020.3
2017-Jun-11 15:30N 38°38' E 120°09'1020.4
2017-Jun-11 15:00N 38°39' E 119°56'1020.5
2017-Jun-11 14:30N 38°40' E 119°43'2120.7
2017-Jun-11 13:30N 38°44' E 119°17'1121.0
2017-Jun-11 13:00N 38°45' E 119°03'1121.1
2017-Jun-11 12:30N 38°47' E 118°50'1121.4
2017-Jun-11 12:00N 38°48' E 118°37'1320.2
2017-Jun-11 11:22N 38°50' E 118°20'28 2.3
2017-Jun-10 23:37N 38°60' E 117°47'0 0.0
2017-Jun-10 23:19N 38°60' E 117°47'0 0.0
2017-Jun-10 22:58N 38°60' E 117°47'0 0.0
2017-Jun-10 21:46N 38°60' E 117°47'0 0.0
2017-Jun-10 21:28N 38°60' E 117°47'0 0.1
2017-Jun-10 20:52N 38°60' E 117°47'1 0.2
2017-Jun-10 14:55N 38°59' E 117°48'2310.4
2017-Jun-10 12:41N 38°51' E 118°16'213.5
2017-Jun-10 12:30N 38°51' E 118°19'7614.9
2017-Jun-10 07:24N 38°43' E 119°56'1217.7
2017-Jun-10 06:45N 38°42' E 120°10'418.6
2017-Jun-10 06:31N 38°41' E 120°16'918.5
2017-Jun-10 06:01N 38°41' E 120°28'918.6
2017-Jun-10 05:31N 38°40' E 120°40'1018.8
2017-Jun-10 05:00N 38°37' E 120°51'919.2
2017-Jun-10 04:31N 38°33' E 121°02'1019.1
2017-Jun-10 04:01N 38°28' E 121°13'918.8
2017-Jun-10 03:31N 38°24' E 121°24'918.8
2017-Jun-10 03:01N 38°19' E 121°34'918.6
2017-Jun-10 02:31N 38°14' E 121°44'918.5
2017-Jun-10 02:01N 38°09' E 121°54'918.5
2017-Jun-10 01:31N 38°04' E 122°04'918.3
2017-Jun-10 01:00N 37°60' E 122°14'918.2
2017-Jun-10 00:30N 37°55' E 122°24'918.3
2017-Jun-10 00:01N 37°51' E 122°34'918.7
2017-Jun-09 23:31N 37°46' E 122°45'918.8
2017-Jun-09 23:01N 37°41' E 122°54'918.9
2017-Jun-09 22:31N 37°34' E 123°02'918.6
2017-Jun-09 22:00N 37°24' E 123°03'1018.9
2017-Jun-09 21:30N 37°15' E 123°03'918.3
2017-Jun-09 21:00N 37°06' E 123°01'917.5
2017-Jun-09 20:30N 36°58' E 122°57'  
Track history (hours):
 
Tides and Currents Weather Stations Pressure Air Temp Water Temp Dewpoint Dewpoint Depression Visibility Wind Speed Wind Dir Waves Ship Positions

Alm Zurich

Last reported at 2017-Jun-15 23:15 UTC. Time now 2017-Jun-26 21:05 UTC.
Position N 31°06' E 124°28'.
Warning: this ship's position is 10 days out of date.

Length 294 m; draft 11.1 m.

Type: Ship (hazmat cat A). MMSI: 538002956.

Date/timePositionNaut miles runAvg speedWind from/ knotsBaromVisibWave heightAir tempDewpointWater temp
2017-Jun-15 23:15N 31°06' E 124°28'519.8
2017-Jun-15 23:00N 31°03' E 124°24'3519.9
2017-Jun-15 21:14N 30°40' E 123°52'520.2
2017-Jun-15 21:00N 30°37' E 123°48'  
2017-Jun-11 23:46N 37°13' E 122°58'619.3
2017-Jun-11 23:27N 37°19' E 122°58'919.2
2017-Jun-11 23:00N 37°28' E 122°58'918.7
2017-Jun-11 22:30N 37°36' E 122°53'1019.9
2017-Jun-11 22:00N 37°42' E 122°43'1020.5
2017-Jun-11 21:30N 37°48' E 122°32'1121.1
2017-Jun-11 21:00N 37°54' E 122°21'1121.2
2017-Jun-11 20:30N 37°60' E 122°10'1121.4
2017-Jun-11 20:00N 38°04' E 121°57'1121.3
2017-Jun-11 19:30N 38°09' E 121°45'1121.0
2017-Jun-11 18:59N 38°15' E 121°33'1020.9
2017-Jun-11 18:30N 38°20' E 121°23'1121.0
2017-Jun-11 18:00N 38°26' E 121°11'1020.3
2017-Jun-11 17:30N 38°31' E 121°00'1220.2
2017-Jun-11 16:55N 38°34' E 120°46'1120.4
2017-Jun-11 16:24N 38°36' E 120°32'820.4
2017-Jun-11 16:00N 38°37' E 120°22'1020.3
2017-Jun-11 15:30N 38°38' E 120°09'1020.4
2017-Jun-11 15:00N 38°39' E 119°56'1020.5
2017-Jun-11 14:30N 38°40' E 119°43'2120.7
2017-Jun-11 13:30N 38°44' E 119°17'1121.0
2017-Jun-11 13:00N 38°45' E 119°03'1121.1
2017-Jun-11 12:30N 38°47' E 118°50'1121.4
2017-Jun-11 12:00N 38°48' E 118°37'1320.2
2017-Jun-11 11:22N 38°50' E 118°20'28 2.3
2017-Jun-10 23:37N 38°60' E 117°47'0 0.0
2017-Jun-10 23:19N 38°60' E 117°47'0 0.0
2017-Jun-10 22:58N 38°60' E 117°47'0 0.0
2017-Jun-10 21:46N 38°60' E 117°47'0 0.0
2017-Jun-10 21:28N 38°60' E 117°47'0 0.1
2017-Jun-10 20:52N 38°60' E 117°47'1 0.2
2017-Jun-10 14:55N 38°59' E 117°48'2310.4
2017-Jun-10 12:41N 38°51' E 118°16'213.5
2017-Jun-10 12:30N 38°51' E 118°19'7614.9
2017-Jun-10 07:24N 38°43' E 119°56'1217.7
2017-Jun-10 06:45N 38°42' E 120°10'418.6
2017-Jun-10 06:31N 38°41' E 120°16'918.5
2017-Jun-10 06:01N 38°41' E 120°28'918.6
2017-Jun-10 05:31N 38°40' E 120°40'1018.8
2017-Jun-10 05:00N 38°37' E 120°51'919.2
2017-Jun-10 04:31N 38°33' E 121°02'1019.1
2017-Jun-10 04:01N 38°28' E 121°13'918.8
2017-Jun-10 03:31N 38°24' E 121°24'918.8
2017-Jun-10 03:01N 38°19' E 121°34'918.6
2017-Jun-10 02:31N 38°14' E 121°44'918.5
2017-Jun-10 02:01N 38°09' E 121°54'918.5
2017-Jun-10 01:31N 38°04' E 122°04'918.3
2017-Jun-10 01:00N 37°60' E 122°14'918.2
2017-Jun-10 00:30N 37°55' E 122°24'918.3
2017-Jun-10 00:01N 37°51' E 122°34'918.7
2017-Jun-09 23:31N 37°46' E 122°45'918.8
2017-Jun-09 23:01N 37°41' E 122°54'918.9
2017-Jun-09 22:31N 37°34' E 123°02'918.6
2017-Jun-09 22:00N 37°24' E 123°03'1018.9
2017-Jun-09 21:30N 37°15' E 123°03'918.3
2017-Jun-09 21:00N 37°06' E 123°01'917.5
2017-Jun-09 20:30N 36°58' E 122°57'  

Dump ship's entire track history